메인 페이지
METAR-TAF:

METAR-TAF

공항 :

돈므앙 국제공항

방콕, 타이

위도: 13-54-45N, 경도: 100-36-24E, 고도: 4m

현재 날씨관측

예보는 38분 전, 21:00시(UTC)에 발표되었습니다.
동남동5kt
온도 26°C
습도 94%
기압 1009 hPa
시정 10km 이상
고도 3000ft 상공 구름 조금

METAR: VTBD 222100Z 11005KT 9999 FEW030 26/25 Q1009 NOSIG

시각: 04:38 (21:38 UTC)

예보

예보는 4 시간 38분 전, 17:00시(UTC)에 발표되었습니다.
예보 대상 시간: 22일 18시부터 23일 24시까지 (UTC)
5kt
시정 10km 이상
고도 2000ft 상공 구름 조금
전환 중
23일 02시부터 23일 04시까지 (UTC)
8kt
일시적
23일 04시부터 23일 10시까지 (UTC)
여러 방향의 바람 15kt
시정: 5000m
고도 1800ft 상공 구름 조금, 적란운.
고도 3500ft 상공 구름 보통
뇌우, 비
전환 중
23일 10시부터 23일 12시까지 (UTC)
동남동5kt

TAF: VTBD 221700Z 2218/2324 08005KT 9999 FEW020 BECMG 2302/2304 17008KT TEMPO 2304/2310 VRB15KT 5000 TSRA FEW018CB SCT035 BECMG 2310/2312 11005KT

4,000개 이상의 공항 관측 자료 및 예보 (METAR 및 TAF 보고).

지도상에서 검색 가능한 기상관측소가 노란 점과 빨간 점으로 표시되어 있습니다.

기상관측소 명을 보려면 표시 위로 마우스를 이동하세요.

날씨 관측과 예보를 보려면 클릭하세요.

지도 변경 : 확대하려면 엑스 표시가 있는 녹색 버튼, 축소하려면 빼기 표시가 있는 녹색 버튼, 다음 페이지의 지도를 보려면 녹색 화살표를 클릭하세요.


METAR-TAF: